Tiempo atmosférico en la estación meteorológica de Ramales de la Victoria, Cantabria (80 m.)



Fecha
DESCASC
Temp. máxima en grados centígrados (hora)
DESCASC
Temp. mínima en grados centígrados (hora)
DESCASC
Temp. media en grados centígrados
DESCASC
Racha de viento máxima en m/sg (hora)
DESCASC
Velocidad máxima media en intervalos de 10 minutos(hora)
DESCASC
Precipitaciones diarias en mm
DESCASC
Precipitaciones de 00:00 a 06:00 en mm
DESCASC
Precipitaciones de 06:00 a 12:00 en mm
DESCASC
Precipitaciones de 12:00 a 18:00 en mm
DESCASC
Precipitaciones de 18:00 a 24:00 en mm
DESCASC
16-01-2020 18.7 (16:00) 14.6 (00:00) 16.7 23.06 (07:20) 7.78 (08:00) 0 0 0 0 0
15-01-2020 17.5 (14:10) 6.4 (00:00) 12 20.83 (00:30) 7.22 (05:00) 0 0 0 0 0
14-01-2020 16.2 (15:10) 11.4 (00:00) 13.8 20.83 (14:10) 10.56 (11:40) 0 0 0 0 0
18-01-2020 16.7 (14:30) 4.7 (00:00) 10.7 20.56 (16:50) 8.33 (17:00) 5.8 0 0.2 3.4 2.2
17-01-2020 15.9 (00:50) 4.8 (00:00) 10.3 15.83 (00:50) 7.5 (01:10) 6.6 0 6 0.6 0
09-01-2020 18.5 (14:50) 2.3 (00:00) 10.4 15 (16:00) 7.5 (16:10) 2 0 0 1.6 0.4
13-01-2020 15.4 (15:10) -0.5 (-00:0) 7.4 13.89 (19:40) 5.56 (19:40) 0 0 0 0 0
19-01-2020 9.4 (14:20) 7.3 (00:00) 8.3 8.89 (03:50) 3.06 (12:00) 16.2 13.6 2.6 0 0
26-12-2019 15.5 (03:30) 2.7 (00:00) 9.1 7.5 (03:10) 3.06 (05:10) 0 0 0 0 0
10-01-2020 10 (15:30) 6.1 (00:00) 8 7.5 (03:20) 3.33 (03:30) 6.6 0.4 3.4 2.8 0
20-01-2020 7.3 (00:00) 4.6 (00:00) 6 6.67 (01:30) 2.5 (01:30) 0 0 0 0 0
23-01-2020 11.1 (15:20) 3.2 (00:00) 7.2 6.39 (23:40) 1.67 (23:10) 0.2 0.2 0 0 0
25-12-2019 19.6 (14:10) 3.7 (00:00) 11.7 5.83 (13:50) 2.22 (13:40) 0 0 0 0 0
05-01-2020 11 (14:20) 0.7 (00:00) 5.8 5.56 (06:20) 2.5 (06:20) 0 0 0 0 0
06-01-2020 9.8 (17:00) -2.2 (-00:0) 3.8 3.89 (18:20) 1.94 (18:20) 0 0 0 0 0
04-01-2020 11.1 (15:30) 6.7 (00:00) 8.9 3.89 (14:20) 1.39 (13:30) 3.6 0.4 3 0.2 0
22-01-2020 9.4 (14:10) 5.4 (00:00) 7.4 3.61 (21:00) 1.94 (16:10) 0.4 0.4 0 0 0
03-01-2020 9.9 (15:30) 3.3 (00:00) 6.6 2.78 (08:50) 1.39 (08:50) 2.6 0 0.4 1.6 0.6
21-01-2020 6.1 (16:30) 1.6 (00:00) 3.8 2.78 (15:10) 1.39 (15:10) 0.2 0 0.2 0 0
11-01-2020 10.3 (14:20) 1.4 (00:00) 5.9 1.94 (05:40) 1.11 (14:30) 0.2 0.2 0 0 0
08-01-2020 13.2 (14:30) 1.9 (00:00) 7.5 1.67 (15:10) 0.83 (15:40) 0 0 0 0 0
12-01-2020 10.7 (14:00) -1.4 (-00:0) 4.6 1.67 (06:30) 1.11 (06:30) 0 0 0 0 0
31-12-2019 11.2 (14:20) -2.3 (-00:0) 4.4 1.67 (14:50) 1.11 (14:50) 0 0 0 0 0
28-12-2019 11.6 (14:20) -1.4 (-00:0) 5.1 1.67 (14:50) 1.11 (14:50) 0 0 0 0 0
02-01-2020 9.9 (15:50) -0.7 (-00:0) 4.6 1.39 (19:40) 0.83 (23:10) 0 0 0 0 0
01-01-2020 11.3 (14:10) 1.3 (00:00) 6.3 1.39 (03:50) 1.11 (11:50) 0 0 0 0 0
29-12-2019 9.7 (14:10) -1.2 (-00:0) 4.2 1.39 (14:20) 0.83 (01:30) 0 0 0 0 0
27-12-2019 9.2 (14:20) -0.2 (00:00) 4.5 1.39 (19:20) 1.11 (14:50) 0 0 0 0 0
30-12-2019 -- (--) -- (--) -- -- (--) -- (--) -- 0 0 0 --
07-01-2020 -- (--) -- (--) -- -- (--) -- (--) -- 0 0 -- --

Gráficas

Temp. máximas Temp. mínimas Temp. medias Precipitaciones Rachas de viento máximas Velocidades máximas media en intervalos de 10 minutos

Datos horarios

Fecha y hora oficial Temperatura (ºC) Velocidad del viento (km/h) Dirección del viento Racha (km/h) Dirección de racha Precipitación (mm) Presión (hPa) Tendencia (hPa) Humedad (%)
2020-01-23 23:00:00 8.1 6 Nordeste 18 Norte 0 -- -- 80
2020-01-23 22:00:00 6.5 3 Sudoeste 9 Oeste 0 -- -- 96
2020-01-23 21:00:00 6.3 2 Sudoeste 10 Oeste 0 -- -- 97
2020-01-23 20:00:00 6.6 2 Sudoeste 5 Sudoeste 0 -- -- 95
2020-01-23 19:00:00 7.5 0 Calma 4 Oeste 0 -- -- 93
2020-01-23 18:00:00 8.6 0 Calma 3 Sur 0 -- -- 90
2020-01-23 17:00:00 10 0 Calma 2 Este 0 -- -- 88
2020-01-23 16:00:00 11 0 Calma 2 Oeste 0 -- -- 80
2020-01-23 15:00:00 10.9 0 Calma 3 Este 0 -- -- 76
2020-01-23 14:00:00 9.9 0 Calma 5 Oeste 0 -- -- 84
2020-01-23 13:00:00 8.3 0 Calma 5 Oeste 0 -- -- 94
2020-01-23 12:00:00 6.3 0 Calma 2 Norte 0 -- -- 100
2020-01-23 11:00:00 4.7 2 Oeste 4 Oeste 0 -- -- 100
2020-01-23 10:00:00 3.5 0 Calma 4 Oeste 0 -- -- 100
2020-01-23 09:00:00 3.2 0 Calma 5 Oeste 0 -- -- 99
2020-01-23 08:00:00 3.5 0 Calma 4 Oeste 0 -- -- 99
2020-01-23 07:00:00 3.6 0 Calma 4 Noroeste 0 -- -- 99
2020-01-23 06:00:00 3.7 3 Oeste 6 Oeste 0 -- -- 99
2020-01-23 05:00:00 3.4 0 Calma 4 Oeste 0 -- -- 98
2020-01-23 04:00:00 4 0 Calma 3 Oeste 0 -- -- 97
2020-01-23 03:00:00 5 0 Calma 5 Oeste 0 -- -- 98
2020-01-23 02:00:00 5.4 0 Calma 4 Oeste 0.2 -- -- 98
2020-01-23 01:00:00 5.4 0 Calma 4 Oeste 0 -- -- 97
2020-01-23 00:00:00 5.4 4 Oeste 5 Oeste 0 -- -- 96
2020-01-22 23:00:00 5.8 2 Sudoeste 6 Oeste 0 -- -- 96
2020-01-22 22:00:00 6 3 Sudoeste 8 Oeste 0 -- -- 95
2020-01-22 21:00:00 7 5 Este 13 Este 0 -- -- 93
2020-01-22 20:00:00 7.2 0 Calma 4 Este 0 -- -- 96
2020-01-22 19:00:00 7.1 0 Calma 4 Oeste 0 -- -- 95
2020-01-22 18:00:00 8 0 Calma 4 Sudeste 0 -- -- 88
2020-01-22 17:00:00 9.2 2 Este 10 Este 0 -- -- 86
2020-01-22 16:00:00 9.3 4 Este 8 Nordeste 0 -- -- 87
2020-01-22 15:00:00 9.4 0 Calma 5 Nordeste 0 -- -- 88
2020-01-22 14:00:00 9.3 0 Calma 5 Noroeste 0 -- -- 87
2020-01-22 13:00:00 8.8 0 Calma 6 Sudoeste 0 -- -- 94
2020-01-22 12:00:00 7.6 2 Oeste 5 Sudoeste 0 -- -- 98
2020-01-22 11:00:00 7 2 Este 4 Este 0 -- -- 99
2020-01-22 10:00:00 6.7 0 Calma 5 Oeste 0 -- -- 99
2020-01-22 09:00:00 6.4 2 Noroeste 5 Norte 0 -- -- 98
2020-01-22 08:00:00 6.3 0 Calma 7 Oeste 0 -- -- 98
2020-01-22 07:00:00 6.2 0 Calma 4 Oeste 0 -- -- 98
2020-01-22 06:00:00 6.1 0 Calma 6 Oeste 0 -- -- 98
2020-01-22 05:00:00 6.1 0 Calma 3 Oeste 0.2 -- -- 97
2020-01-22 04:00:00 6.2 0 Calma 4 Nordeste 0.2 -- -- 96
2020-01-22 03:00:00 6.1 2 Sudoeste 4 Oeste 0 -- -- 95
2020-01-22 02:00:00 6.1 0 Calma 9 Sudeste 0 -- -- 94
2020-01-22 01:00:00 5.9 4 Sudoeste 8 Sudoeste 0 -- -- 95
2020-01-22 00:00:00 5.8 0 Calma 5 Sudoeste 0 -- -- 95
2020-01-21 23:00:00 5.8 0 Calma 4 Oeste 0 -- -- 95
2020-01-21 22:00:00 5.9 0 Calma 7 Sudoeste 0 -- -- 94
2020-01-21 21:00:00 5.8 3 Sudoeste 9 Sudoeste 0 -- -- 94
2020-01-21 20:00:00 5.7 2 Sudoeste 9 Sudeste 0 -- -- 95
2020-01-21 19:00:00 5.7 0 Calma 4 Este 0 -- -- 96
2020-01-21 18:00:00 5.8 2 Sudoeste 6 Sudoeste 0 -- -- 95
2020-01-21 17:00:00 6 2 Sudeste 6 Oeste 0 -- -- 95
2020-01-21 16:00:00 5.9 3 Sudoeste 10 Sudoeste 0 -- -- 94
2020-01-21 15:00:00 5.4 4 Sudoeste 9 Sudoeste 0 -- -- 96
2020-01-21 14:00:00 5 2 Oeste 6 Oeste 0 -- -- 95
2020-01-21 13:00:00 4.7 0 Calma 3 Oeste 0 -- -- 95
2020-01-21 12:00:00 4.5 0 Calma 2 Sur 0.2 -- -- 93
2020-01-21 11:00:00 3.9 0 Calma 3 Norte 0 -- -- 93
2020-01-21 10:00:00 3.2 2 Oeste 5 Oeste 0 -- -- 96
2020-01-21 09:00:00 2.8 3 Este 4 Este 0 -- -- 97
2020-01-21 08:00:00 2.4 0 Calma 4 Sudeste 0 -- -- 97
2020-01-21 07:00:00 2.1 0 Calma 4 Noroeste 0 -- -- 97
2020-01-21 06:00:00 1.6 0 Calma 5 Sudoeste 0 -- -- 97
2020-01-21 05:00:00 1.7 0 Calma 5 Sudoeste 0 -- -- 96
2020-01-21 04:00:00 1.7 2 Sudoeste 3 Sudoeste 0 -- -- 95
2020-01-21 03:00:00 2.4 2 Oeste 3 Oeste 0 -- -- 94
2020-01-21 02:00:00 3.1 0 Calma 4 Sudeste 0 -- -- 93
2020-01-21 01:00:00 3.9 0 Calma 3 Sudoeste 0 -- -- 90
2020-01-21 00:00:00 4.6 0 Calma 4 Este 0 -- -- 88
2020-01-20 23:00:00 4.9 0 Calma 4 Sudeste 0 -- -- 85
2020-01-20 22:00:00 5 0 Calma 6 Noroeste 0 -- -- 84
2020-01-20 21:00:00 5.1 0 Calma 9 Oeste 0 -- -- 84
2020-01-20 20:00:00 5.1 2 Sudoeste 4 Sudoeste 0 -- -- 82
2020-01-20 19:00:00 5.4 0 Calma 5 Sudoeste 0 -- -- 79
2020-01-20 18:00:00 6 0 Calma 5 Noroeste 0 -- -- 75
2020-01-20 17:00:00 6.7 3 Noroeste 10 Nordeste 0 -- -- 70
2020-01-20 16:00:00 7.1 2 Nordeste 12 Este 0 -- -- 66
2020-01-20 15:00:00 6.8 6 Este 13 Este 0 -- -- 68
2020-01-20 14:00:00 7.2 4 Noroeste 13 Noroeste 0 -- -- 65
2020-01-20 13:00:00 6.8 5 Noroeste 13 Norte 0 -- -- 67
2020-01-20 12:00:00 6.7 4 Norte 15 Noroeste 0 -- -- 67
2020-01-20 11:00:00 6.2 3 Oeste 13 Norte 0 -- -- 70
2020-01-20 10:00:00 6 5 Noroeste 17 Noroeste 0 -- -- 66
2020-01-20 09:00:00 5.6 4 Oeste 15 Noroeste 0 -- -- 70
2020-01-20 08:00:00 6 6 Noroeste 21 Noroeste 0 -- -- 67
2020-01-20 07:00:00 5.8 6 Noroeste 18 Noroeste 0 -- -- 73
2020-01-20 06:00:00 6.3 4 Norte 21 Este 0 -- -- 68
2020-01-20 05:00:00 6.4 3 Noroeste 15 Norte 0 -- -- 66
2020-01-20 04:00:00 6.7 3 Oeste 17 Nordeste 0 -- -- 66
2020-01-20 03:00:00 6.8 4 Oeste 15 Nordeste 0 -- -- 63
2020-01-20 02:00:00 7.2 6 Nordeste 24 Norte 0 -- -- 61
2020-01-20 01:00:00 7.2 5 Este 23 Este 0 -- -- 62
2020-01-20 00:00:00 7.3 4 Este 19 Nordeste 0 -- -- 64
2020-01-19 23:00:00 7.4 4 Norte 30 Noroeste 0 -- -- 66
2020-01-19 22:00:00 7.7 8 Norte 24 Noroeste 0 -- -- 65
2020-01-19 21:00:00 7.9 6 Norte 28 Nordeste 0 -- -- 64
2020-01-19 20:00:00 8.1 7 Norte 24 Nordeste 0 -- -- 65
2020-01-19 19:00:00 7.9 9 Noroeste 22 Oeste 0 -- -- 68
2020-01-19 18:00:00 8 9 Oeste 25 Oeste 0 -- -- 69
2020-01-19 17:00:00 8.4 8 Noroeste 29 Noroeste 0 -- -- 67
2020-01-19 16:00:00 9 6 Nordeste 21 Norte 0 -- -- 63
2020-01-19 15:00:00 9.3 9 Norte 23 Nordeste 0 -- -- 62
2020-01-19 14:00:00 9 10 Noroeste 32 Nordeste 0 -- -- 65
2020-01-19 13:00:00 9.1 4 Norte 19 Noroeste 0 -- -- 69
2020-01-19 12:00:00 8.7 11 Oeste 19 Oeste 0 -- -- 74
2020-01-19 11:00:00 8.4 6 Noroeste 22 Noroeste 0 -- -- 75
2020-01-19 10:00:00 7.9 8 Oeste 21 Noroeste 0 -- -- 84
2020-01-19 09:00:00 7.5 7 Oeste 15 Noroeste 0 -- -- 89
2020-01-19 08:00:00 8 5 Noroeste 18 Noroeste 1 -- -- 93
2020-01-19 07:00:00 8.3 5 Oeste 22 Oeste 1.6 -- -- 90
2020-01-19 06:00:00 8 9 Oeste 21 Oeste 0.8 -- -- 94
2020-01-19 05:00:00 8.1 3 Sudoeste 17 Norte 1.8 -- -- 92
2020-01-19 04:00:00 8.6 6 Noroeste 32 Norte 2.4 -- -- 89
2020-01-19 03:00:00 9.2 5 Norte 17 Nordeste 3.8 -- -- 93
2020-01-19 02:00:00 8.6 2 Oeste 6 Sudoeste 3 -- -- 98
2020-01-19 01:00:00 8.2 0 Calma 5 Sudeste 1.8 -- -- 98
2020-01-19 00:00:00 8.1 0 Calma 4 Sudeste 0.6 -- -- 98
2020-01-18 23:00:00 7.9 0 Calma 3 Sudeste 0.4 -- -- 97
2020-01-18 22:00:00 8.2 0 Calma 8 Sur 0.2 -- -- 96
2020-01-18 21:00:00 8.1 5 Sudoeste 10 Sudoeste 0.6 -- -- 96
2020-01-18 20:00:00 8 2 Sudoeste 10 Sudeste 0 -- -- 94
2020-01-18 19:00:00 8.4 3 Sur 14 Sur 0.4 -- -- 91
2020-01-18 18:00:00 9.4 7 Noroeste 41 Sudoeste 3.2 -- -- 84
2020-01-18 17:00:00 12.4 30 Oeste 74 Noroeste 0.2 -- -- 78
2020-01-18 16:00:00 16.1 17 Sudoeste 51 Sudeste 0 -- -- 53
2020-01-18 15:00:00 15.9 17 Sudoeste 48 Sur 0 -- -- 55
2020-01-18 14:00:00 16.2 15 Sur 48 Sudoeste 0 -- -- 52
2020-01-18 13:00:00 15.1 15 Sur 71 Sur 0 -- -- 53
2020-01-18 12:00:00 14.8 15 Sur 71 Sur 0 -- -- 51
2020-01-18 11:00:00 13.8 19 Sudoeste 69 Oeste 0 -- -- 51
2020-01-18 10:00:00 13 17 Sudoeste 63 Sur 0.2 -- -- 52
2020-01-18 09:00:00 12.2 15 Sur 31 Sudoeste 0 -- -- 53
2020-01-18 08:00:00 11.2 8 Oeste 32 Sudeste 0 -- -- 57
2020-01-18 07:00:00 5.7 3 Sudoeste 12 Oeste 0 -- -- 96
2020-01-18 06:00:00 5.5 3 Noroeste 9 Oeste 0 -- -- 97
2020-01-18 05:00:00 5.3 0 Calma 5 Sudoeste 0 -- -- 97
2020-01-18 04:00:00 5.3 2 Sur 10 Sudoeste 0 -- -- 98
2020-01-18 03:00:00 5 0 Calma 5 Oeste 0 -- -- 98
2020-01-18 02:00:00 4.8 0 Calma 5 Oeste 0 -- -- 98
2020-01-18 01:00:00 4.7 0 Calma 5 Sur 0 -- -- 97
2020-01-18 00:00:00 4.8 0 Calma 5 Oeste 0 -- -- 97
2020-01-17 23:00:00 5.4 0 Calma 4 Sudoeste 0 -- -- 96
2020-01-17 22:00:00 6 2 Sur 4 Sudeste 0 -- -- 96
2020-01-17 21:00:00 6 0 Calma 4 Este 0 -- -- 94
2020-01-17 20:00:00 6.6 2 Sudeste 5 Sudeste 0 -- -- 92
2020-01-17 19:00:00 7.6 0 Calma 3 Sur 0 -- -- 89
2020-01-17 18:00:00 8.9 2 Sur 4 Sur 0 -- -- 85
2020-01-17 17:00:00 10.9 4 Oeste 11 Oeste 0 -- -- 69
2020-01-17 16:00:00 12.1 6 Oeste 17 Oeste 0 -- -- 67
2020-01-17 15:00:00 12.3 6 Noroeste 20 Sudoeste 0 -- -- 59
2020-01-17 14:00:00 11.7 8 Oeste 22 Oeste 0 -- -- 67
2020-01-17 13:00:00 8.5 3 Nordeste 9 Este 0.6 -- -- 93
2020-01-17 12:00:00 9.1 7 Noroeste 22 Noroeste 1.6 -- -- 88
2020-01-17 11:00:00 8.4 4 Sudoeste 10 Oeste 0 -- -- 95
2020-01-17 10:00:00 8.5 2 Este 29 Oeste 2.2 -- -- 91
2020-01-17 09:00:00 8.6 5 Sur 18 Noroeste 0.8 -- -- 94
2020-01-17 08:00:00 9.3 0 Calma 19 Oeste 0.2 -- -- 88
2020-01-17 07:00:00 9.8 8 Noroeste 31 Oeste 1.2 -- -- 84
2020-01-17 06:00:00 10.5 4 Noroeste 12 Este 0 -- -- 83
2020-01-17 05:00:00 11.5 2 Este 24 Sur 0 -- -- 79
2020-01-17 04:00:00 12.6 6 Sur 15 Este 0 -- -- 62
2020-01-17 03:00:00 13.9 4 Sudoeste 30 Oeste 0 -- -- 59
2020-01-17 02:00:00 15.3 14 Sur 53 Sudoeste 0 -- -- 49
2020-01-17 01:00:00 15.8 23 Sudoeste 57 Sur 0 -- -- 48
2020-01-17 00:00:00 14.6 6 Sudeste 31 Sudoeste 0 -- -- 56
2020-01-16 23:00:00 15 12 Sur 32 Sudeste 0 -- -- 52
2020-01-16 22:00:00 16.2 6 Sudeste 55 Oeste 0 -- -- 43
2020-01-16 21:00:00 17.3 20 Sudoeste 54 Oeste 0 -- -- 37
2020-01-16 20:00:00 17.1 7 Nordeste 40 Nordeste 0 -- -- 32
2020-01-16 19:00:00 17.1 9 Este 54 Sur 0 -- -- 34
2020-01-16 18:00:00 18.3 23 Sur 64 Sudeste 0 -- -- 35
2020-01-16 17:00:00 18.4 18 Sudeste 58 Sudeste 0 -- -- 37
2020-01-16 16:00:00 18.7 16 Sudoeste 42 Oeste 0 -- -- 39
2020-01-16 15:00:00 18.3 14 Oeste 52 Oeste 0 -- -- 44
2020-01-16 14:00:00 17.8 8 Sudoeste 32 Este 0 -- -- 50
2020-01-16 13:00:00 17.3 4 Nordeste 62 Oeste 0 -- -- 54
2020-01-16 12:00:00 17.6 12 Sudoeste 55 Oeste 0 -- -- 52
2020-01-16 11:00:00 17.2 14 Sudoeste 40 Oeste 0 -- -- 54
2020-01-16 10:00:00 16.8 13 Sudoeste 38 Oeste 0 -- -- 56
2020-01-16 09:00:00 16.7 17 Sudoeste 53 Oeste 0 -- -- 55
2020-01-16 08:00:00 17.2 28 Sudoeste 83 Oeste 0 -- -- 53
2020-01-16 07:00:00 17.3 15 Sudoeste 63 Oeste 0 -- -- 55
2020-01-16 06:00:00 17.4 13 Norte 63 Oeste 0 -- -- 55
2020-01-16 05:00:00 17.2 13 Este 58 Nordeste 0 -- -- 57
2020-01-16 04:00:00 17.3 13 Norte 66 Noroeste 0 -- -- 56
2020-01-16 03:00:00 16.9 18 Oeste 70 Sudoeste 0 -- -- 57
2020-01-16 02:00:00 17 17 Sudoeste 57 Oeste 0 -- -- 56
2020-01-16 01:00:00 16.2 8 Sudeste 40 Oeste 0 -- -- 55
2020-01-16 00:00:00 15.8 18 Sur 44 Sur 0 -- -- 55
2020-01-15 23:00:00 12.3 7 Este 50 Sudeste 0 -- -- 71
2020-01-15 22:00:00 7 3 Sur 10 Oeste 0 -- -- 98
2020-01-15 21:00:00 6.7 3 Sur 8 Oeste 0 -- -- 94
2020-01-15 20:00:00 8.1 0 Calma 6 Oeste 0 -- -- 94
2020-01-15 19:00:00 9.2 3 Sudoeste 9 Sudeste 0 -- -- 90
2020-01-15 18:00:00 11.6 6 Este 12 Este 0 -- -- 85
2020-01-15 17:00:00 13.5 6 Este 13 Nordeste 0 -- -- 78
2020-01-15 16:00:00 15.4 8 Nordeste 13 Nordeste 0 -- -- 71
2020-01-15 15:00:00 16 4 Norte 16 Este 0 -- -- 66
2020-01-15 14:00:00 17.4 5 Norte 42 Sudoeste 0 -- -- 55
2020-01-15 13:00:00 15.6 13 Sudoeste 34 Sudoeste 0 -- -- 58
2020-01-15 12:00:00 15.5 8 Sudoeste 26 Sur 0 -- -- 59
2020-01-15 11:00:00 15.7 14 Sudoeste 59 Oeste 0 -- -- 57
2020-01-15 10:00:00 15.3 18 Sudoeste 43 Oeste 0 -- -- 56
2020-01-15 09:00:00 14.6 8 Sudoeste 31 Oeste 0 -- -- 56
2020-01-15 08:00:00 14.8 15 Sudoeste 75 Sudeste 0 -- -- 56
2020-01-15 07:00:00 15 24 Sudoeste 65 Sur 0 -- -- 55
2020-01-15 06:00:00 15.3 23 Sudoeste 70 Oeste 0 -- -- 54
2020-01-15 05:00:00 15.1 26 Sudoeste 66 Oeste 0 -- -- 56
2020-01-15 04:00:00 15 21 Sudoeste 74 Oeste 0 -- -- 57
2020-01-15 03:00:00 15 24 Sudoeste 74 Oeste 0 -- -- 56
2020-01-15 02:00:00 14.5 12 Sur 57 Oeste 0 -- -- 57
2020-01-15 01:00:00 14.8 13 Sudoeste 75 Oeste 0 -- -- 56
2020-01-15 00:00:00 14.8 12 Sudoeste 55 Oeste 0 -- -- 54
2020-01-14 23:00:00 14.7 19 Oeste 52 Oeste 0 -- -- 51
2020-01-14 22:00:00 14.5 9 Nordeste 62 Oeste 0 -- -- 51
2020-01-14 21:00:00 15.2 21 Noroeste 64 Oeste 0 -- -- 49
2020-01-14 20:00:00 15.2 21 Noroeste 64 Oeste 0 -- -- 45
2020-01-14 19:00:00 14.6 16 Este 36 Nordeste 0 -- -- 46
2020-01-14 18:00:00 15 16 Nordeste 54 Este 0 -- -- 48
2020-01-14 17:00:00 14.8 13 Este 53 Este 0 -- -- 49
2020-01-14 16:00:00 15.7 6 Este 50 Oeste 0 -- -- 45
2020-01-14 15:00:00 16 22 Sudoeste 75 Sur 0 -- -- 43
2020-01-14 14:00:00 15.8 12 Sudoeste 58 Oeste 0 -- -- 43
2020-01-14 13:00:00 14.5 16 Sudoeste 57 Sudoeste 0 -- -- 45
2020-01-14 12:00:00 14.2 17 Sur 74 Sur 0 -- -- 48
2020-01-14 11:00:00 13.7 31 Sur 69 Sur 0 -- -- 50
2020-01-14 10:00:00 14 16 Sur 50 Sur 0 -- -- 51
2020-01-14 09:00:00 13.7 22 Sur 50 Sur 0 -- -- 51
2020-01-14 08:00:00 13.4 17 Sur 42 Sur 0 -- -- 52
2020-01-14 07:00:00 11.4 5 Sudoeste 22 Este 0 -- -- 60
2020-01-14 06:00:00 13.2 12 Norte 33 Sudeste 0 -- -- 52
2020-01-14 05:00:00 13.6 10 Sudeste 36 Sur 0 -- -- 48
2020-01-14 04:00:00 13.3 18 Sur 50 Sur 0 -- -- 48
2020-01-14 03:00:00 12.6 16 Sur 38 Sudoeste 0 -- -- 49
2020-01-14 02:00:00 12.8 22 Sur 57 Sudeste 0 -- -- 48
2020-01-14 01:00:00 13.4 22 Sur 54 Sur 0 -- -- 45
2020-01-14 00:00:00 12.2 12 Sudeste 40 Sur 0 -- -- 44
2020-01-13 23:00:00 9.1 12 Sudoeste 37 Este 0 -- -- 53
2020-01-13 22:00:00 7.2 8 Sur 35 Sur 0 -- -- 57
2020-01-13 21:00:00 7.2 4 Oeste 38 Sur 0 -- -- 68
2020-01-13 20:00:00 14 20 Sur 50 Sur 0 -- -- 29
2020-01-13 19:00:00 14.1 14 Sur 43 Sur 0 -- -- 27
2020-01-13 18:00:00 14.2 16 Sur 40 Sur 0 -- -- 30
2020-01-13 17:00:00 14.5 13 Sur 32 Sur 0 -- -- 28
2020-01-13 16:00:00 14.9 8 Sur 35 Este 0 -- -- 29
2020-01-13 15:00:00 14.6 11 Sur 25 Sudeste 0 -- -- 36
2020-01-13 14:00:00 10.6 2 Sudoeste 6 Sudeste 0 -- -- 85
2020-01-13 13:00:00 7.1 3 Sudoeste 9 Oeste 0 -- -- 100
2020-01-13 12:00:00 5.6 4 Este 7 Este 0 -- -- 100
2020-01-13 11:00:00 3.1 0 Calma 6 Sudoeste 0 -- -- 100
2020-01-13 10:00:00 0.9 4 Oeste 10 Oeste 0 -- -- 100
2020-01-13 09:00:00 -0.1 0 Calma 5 Sudeste 0 -- -- 100
2020-01-13 08:00:00 -0.5 0 Calma 2 Noroeste 0 -- -- 100
2020-01-13 07:00:00 -0.5 0 Calma 4 Oeste 0 -- -- 100
2020-01-13 06:00:00 -0.3 3 Sudoeste 5 Sur 0 -- -- 100
2020-01-13 05:00:00 -0.3 0 Calma 5 Sudoeste 0 -- -- 100
2020-01-13 04:00:00 -0.2 0 Calma 3 Sur 0 -- -- 100
2020-01-13 03:00:00 -0.1 0 Calma 3 Oeste 0 -- -- 100
2020-01-13 02:00:00 0.2 0 Calma 4 Oeste 0 -- -- 99
2020-01-13 01:00:00 0.8 0 Calma 2 Sur 0 -- -- 100
2020-01-13 00:00:00 0.8 0 Calma 4 Oeste 0 -- -- 99
2020-01-12 23:00:00 1.1 0 Calma 3 Oeste 0 -- -- 99
2020-01-12 22:00:00 1.6 0 Calma 3 Oeste 0 -- -- 99
2020-01-12 21:00:00 2.3 0 Calma 3 Oeste 0 -- -- 98
2020-01-12 20:00:00 3 0 Calma 2 Sur 0 -- -- 97
2020-01-12 19:00:00 4.1 0 Calma 3 Sudoeste 0 -- -- 96
2020-01-12 18:00:00 5.6 0 Calma 3 Oeste 0 -- -- 95
2020-01-12 17:00:00 6.7 0 Calma 4 Sudoeste 0 -- -- 93
2020-01-12 16:00:00 8.2 2 Sudoeste 5 Oeste 0 -- -- 88
2020-01-12 15:00:00 10.3 3 Sudoeste 4 Sudoeste 0 -- -- 86
2020-01-12 14:00:00 10.7 2 Sur 4 Sur 0 -- -- 83
2020-01-12 13:00:00 8.9 2 Sur 4 Sur 0 -- -- 85
2020-01-12 12:00:00 5.1 0 Calma 4 Sudeste 0 -- -- 100
2020-01-12 11:00:00 1.2 2 Oeste 4 Oeste 0 -- -- 100
2020-01-12 10:00:00 -1.2 2 Sudeste 4 Sudeste 0 -- -- 100
2020-01-12 09:00:00 -1.4 0 Calma 2 Oeste 0 -- -- 100
2020-01-12 08:00:00 -1.2 0 Calma 2 Sur 0 -- -- 100
2020-01-12 07:00:00 -0.9 2 Sudoeste 6 Oeste 0 -- -- 100
2020-01-12 06:00:00 -0.6 2 Sudeste 4 Este 0 -- -- 100
2020-01-12 05:00:00 -0.5 2 Oeste 4 Oeste 0 -- -- 100
2020-01-12 04:00:00 -0.2 2 Oeste 4 Oeste 0 -- -- 100
2020-01-12 03:00:00 0.4 0 Calma 3 Oeste 0 -- -- 100
2020-01-12 02:00:00 0.8 2 Oeste 4 Oeste 0 -- -- 100
2020-01-12 01:00:00 1.1 0 Calma 4 Oeste 0 -- -- 99
2020-01-12 00:00:00 1.4 0 Calma 2 Sur 0 -- -- 99
2020-01-11 23:00:00 1.9 0 Calma 3 Oeste 0 -- -- 99
2020-01-11 22:00:00 2.2 2 Oeste 4 Oeste 0 -- -- 98
2020-01-11 21:00:00 2.8 0 Calma 4 Oeste 0 -- -- 97
2020-01-11 20:00:00 4 0 Calma 4 Oeste 0 -- -- 97
2020-01-11 19:00:00 5.2 0 Calma 3 Oeste 0 -- -- 96
2020-01-11 18:00:00 6.9 0 Calma 4 Sur 0 -- -- 96
2020-01-11 17:00:00 7.9 0 Calma 3 Sudoeste 0 -- -- 96
2020-01-11 16:00:00 8.5 0 Calma 5 Sudoeste 0 -- -- 92
2020-01-11 15:00:00 9.9 2 Sudoeste 6 Oeste 0 -- -- 87
2020-01-11 14:00:00 10.2 2 Sur 4 Sudoeste 0 -- -- 85
2020-01-11 13:00:00 8.6 0 Calma 3 Sudoeste 0 -- -- 88
2020-01-11 12:00:00 5.6 0 Calma 5 Sudoeste 0 -- -- 100
2020-01-11 11:00:00 2.8 0 Calma 3 Oeste 0 -- -- 100
2020-01-11 10:00:00 1.7 0 Calma 5 Noroeste 0 -- -- 100
2020-01-11 09:00:00 1.9 2 Noroeste 5 Norte 0 -- -- 100
2020-01-11 08:00:00 2.7 3 Noroeste 5 Noroeste 0 -- -- 100
2020-01-11 07:00:00 3.2 2 Oeste 4 Noroeste 0 -- -- 100
2020-01-11 06:00:00 3.8 2 Noroeste 7 Norte 0 -- -- 100
2020-01-11 05:00:00 4.5 0 Calma 4 Este 0 -- -- 100
2020-01-11 04:00:00 4.6 2 Noroeste 5 Oeste 0 -- -- 99
2020-01-11 03:00:00 4.5 3 Oeste 6 Oeste 0.2 -- -- 99
2020-01-11 02:00:00 4.3 0 Calma 3 Sudeste 0 -- -- 99
2020-01-11 01:00:00 5.2 0 Calma 3 Oeste 0 -- -- 99
2020-01-11 00:00:00 6.1 3 Oeste 5 Oeste 0 -- -- 99
2020-01-10 23:00:00 6.4 0 Calma 5 Sudoeste 0 -- -- 99
2020-01-10 22:00:00 6.4 0 Calma 4 Oeste 0 -- -- 99
2020-01-10 21:00:00 6.8 2 Sudoeste 7 Norte 0 -- -- 99
2020-01-10 20:00:00 6.5 0 Calma 3 Sur 0 -- -- 98
2020-01-10 19:00:00 7.4 0 Calma 3 Sur 0 -- -- 97
2020-01-10 18:00:00 8.2 0 Calma 4 Sur 0 -- -- 96
2020-01-10 17:00:00 9.3 2 Sudoeste 8 Oeste 0.2 -- -- 94
2020-01-10 16:00:00 9.8 4 Oeste 15 Oeste 0.8 -- -- 95
2020-01-10 15:00:00 9.9 6 Noroeste 14 Noroeste 0.4 -- -- 93
2020-01-10 14:00:00 9.7 8 Oeste 14 Oeste 0.4 -- -- 90
2020-01-10 13:00:00 9.4 4 Noroeste 15 Oeste 1 -- -- 94
2020-01-10 12:00:00 9.1 5 Oeste 18 Oeste 2.6 -- -- 92
2020-01-10 11:00:00 9.1 0 Calma 5 Sudeste 0 -- -- 94
2020-01-10 10:00:00 8.1 0 Calma 8 Sudoeste 0.4 -- -- 95
2020-01-10 09:00:00 7.8 4 Sur 9 Norte 0 -- -- 92
2020-01-10 08:00:00 8.4 8 Oeste 23 Sudoeste 0.2 -- -- 85
2020-01-10 07:00:00 8.4 4 Noroeste 13 Sudoeste 0.2 -- -- 83
2020-01-10 06:00:00 8.1 4 Norte 13 Noroeste 0 -- -- 84
2020-01-10 05:00:00 8.7 8 Noroeste 21 Noroeste 0.2 -- -- 83
2020-01-10 04:00:00 9.6 9 Noroeste 27 Oeste 0.2 -- -- 76
2020-01-10 03:00:00 9.9 6 Noroeste 22 Oeste 0 -- -- 74
2020-01-10 02:00:00 9 0 Calma 13 Oeste 0 -- -- 85
2020-01-10 01:00:00 8.6 4 Noroeste 19 Nordeste 0 -- -- 85
2020-01-10 00:00:00 7.3 2 Este 10 Nordeste 0 -- -- 94
2020-01-09 23:00:00 6.3 2 Sur 9 Sur 0 -- -- 97
2020-01-09 22:00:00 8 0 Calma 8 Sur 0 -- -- 96
2020-01-09 21:00:00 8.8 3 Sur 8 Sudoeste 0 -- -- 95
2020-01-09 20:00:00 9.8 5 Sur 11 Sudoeste 0.4 -- -- 91
2020-01-09 19:00:00 11 5 Noroeste 29 Oeste 0 -- -- 81
2020-01-09 18:00:00 11.4 15 Oeste 40 Oeste 0 -- -- 81
2020-01-09 17:00:00 10.7 19 Oeste 48 Noroeste 1.6 -- -- 88
2020-01-09 16:00:00 15.8 25 Noroeste 54 Noroeste 0 -- -- 69
2020-01-09 15:00:00 18.4 18 Sur 38 Sur 0 -- -- 51
2020-01-09 14:00:00 17.1 14 Sur 32 Sur 0 -- -- 54
2020-01-09 13:00:00 12.7 4 Oeste 8 Oeste 0 -- -- 87
2020-01-09 12:00:00 9.4 4 Sudoeste 6 Oeste 0 -- -- 100
2020-01-09 11:00:00 5.7 0 Calma 8 Este 0 -- -- 100
2020-01-09 10:00:00 2.9 3 Oeste 5 Oeste 0 -- -- 100
2020-01-09 09:00:00 2.4 2 Oeste 5 Oeste 0 -- -- 100
2020-01-09 08:00:00 2.9 3 Sudeste 5 Oeste 0 -- -- 100
2020-01-09 07:00:00 3.4 0 Calma 3 Sur 0 -- -- 100
2020-01-09 06:00:00 3.2 3 Oeste 5 Oeste 0 -- -- 100
2020-01-09 05:00:00 2.6 4 Oeste 6 Oeste 0 -- -- 100
2020-01-09 04:00:00 2.6 0 Calma 5 Oeste 0 -- -- 100
2020-01-09 03:00:00 2.9 0 Calma 6 Oeste 0 -- -- 100
2020-01-09 02:00:00 3.3 0 Calma 5 Este 0 -- -- 100
2020-01-09 01:00:00 3.2 2 Oeste 5 Oeste 0 -- -- 99
2020-01-09 00:00:00 3.6 0 Calma 4 Oeste 0 -- -- 99
2020-01-08 23:00:00 4.1 0 Calma 4 Sudeste 0 -- -- 98
2020-01-08 22:00:00 4.6 0 Calma 3 Oeste 0 -- -- 98
2020-01-08 21:00:00 5.3 0 Calma 3 Oeste 0 -- -- 98
2020-01-08 20:00:00 6.1 0 Calma 3 Sur 0 -- -- 97
2020-01-08 19:00:00 7.2 0 Calma 3 Oeste 0 -- -- 95
2020-01-08 18:00:00 8.6 0 Calma 3 Sudoeste 0 -- -- 95
2020-01-08 17:00:00 9.3 0 Calma 4 Oeste 0 -- -- 92
2020-01-08 16:00:00 10.3 2 Sudoeste 6 Sudoeste 0 -- -- 89
2020-01-08 15:00:00 12.3 3 Sudoeste 5 Sudoeste 0 -- -- 81
2020-01-08 14:00:00 12.2 0 Calma 4 Oeste 0 -- -- 80
2020-01-08 13:00:00 11.4 0 Calma 4 Sudoeste 0 -- -- 88
2020-01-08 12:00:00 9.2 0 Calma 2 Sudoeste 0 -- -- 100
2020-01-08 11:00:00 6.1 0 Calma 3 Oeste 0 -- -- 100
2020-01-08 10:00:00 4.3 0 Calma 4 Noroeste 0 -- -- 100
2020-01-08 09:00:00 2.9 0 Calma 2 Sudoeste 0 -- -- 100
2020-01-08 08:00:00 2.3 0 Calma 3 Oeste 0 -- -- 100
2020-01-08 07:00:00 2.2 0 Calma 3 Sur 0 -- -- 100
2020-01-08 06:00:00 2.5 0 Calma 4 Sudoeste 0 -- -- 100
2020-01-08 05:00:00 2.4 0 Calma 3 Oeste 0 -- -- 100
2020-01-08 04:00:00 2.5 0 Calma 4 Oeste 0 -- -- 100
2020-01-08 03:00:00 2.8 2 Oeste 5 Oeste 0 -- -- 100
2020-01-08 02:00:00 3.2 2 Oeste 4 Sudoeste 0 -- -- 99
2020-01-08 01:00:00 3 3 Oeste 4 Oeste 0 -- -- 99
2020-01-08 00:00:00 3.4 2 Oeste 3 Oeste 0 -- -- 99
2020-01-07 23:00:00 3.5 0 Calma 3 Oeste 0 -- -- 99
2020-01-07 22:00:00 4.1 0 Calma 4 Sudoeste 0 -- -- 99
2020-01-07 21:00:00 4.6 0 Calma 3 Oeste 0 -- -- 98
2020-01-07 20:00:00 5.5 0 Calma 4 Oeste 0 -- -- 97
2020-01-07 19:00:00 6.7 0 Calma -- -- -- -- -- 96
2020-01-07 18:00:00 -- -- -- -- -- -- -- -- --
2020-01-07 17:00:00 9.3 0 Calma 5 Sudoeste 0 -- -- 95
2020-01-07 16:00:00 10.4 2 Sudoeste 6 Sur 0 -- -- 93
2020-01-07 15:00:00 11.5 3 Sudoeste 5 Sudoeste 0 -- -- 87
2020-01-07 14:00:00 11.8 2 Sudoeste 4 Oeste 0 -- -- 89
2020-01-07 13:00:00 10.3 3 Sur 5 Sur 0 -- -- 92
2020-01-07 12:00:00 7.6 0 Calma 7 Sudoeste 0 -- -- 100
2020-01-07 11:00:00 3.9 0 Calma 4 Oeste 0 -- -- 100
2020-01-07 10:00:00 2 3 Oeste 5 Oeste 0 -- -- 100
2020-01-07 09:00:00 0.9 0 Calma 4 Sur 0 -- -- 100
2020-01-07 08:00:00 0.8 0 Calma 4 Nordeste 0 -- -- 100
2020-01-07 07:00:00 0.5 0 Calma 2 Oeste 0 -- -- 100
2020-01-07 06:00:00 0.8 0 Calma 3 Oeste 0 -- -- 100
2020-01-07 05:00:00 1.3 0 Calma 5 Sudoeste 0 -- -- 100
2020-01-07 04:00:00 1.5 2 Oeste 5 Oeste 0 -- -- 100
2020-01-07 03:00:00 1.6 3 Oeste 6 Oeste 0 -- -- 100
2020-01-07 02:00:00 1.4 3 Oeste 6 Oeste 0 -- -- 100
2020-01-07 01:00:00 1.3 0 Calma 3 Oeste 0 -- -- 99
2020-01-07 00:00:00 2.1 4 Oeste 5 Oeste 0 -- -- 99
2020-01-06 23:00:00 1.9 0 Calma 5 Oeste 0 -- -- 99
2020-01-06 22:00:00 2.7 0 Calma 3 Sur 0 -- -- 98
2020-01-06 21:00:00 3.5 0 Calma 3 Noroeste 0 -- -- 97
2020-01-06 20:00:00 4.7 0 Calma 5 Oeste 0 -- -- 96
2020-01-06 19:00:00 6.1 0 Calma 14 Sudoeste 0 -- -- 96
2020-01-06 18:00:00 7.6 0 Calma 7 Sudoeste 0 -- -- 92
2020-01-06 17:00:00 9.8 0 Calma 4 Sur 0 -- -- 92
2020-01-06 16:00:00 8.9 3 Sudoeste 5 Sudoeste 0 -- -- 94
2020-01-06 15:00:00 9.1 3 Sudoeste 5 Sur 0 -- -- 88
2020-01-06 14:00:00 9 4 Sudoeste 10 Sudoeste 0 -- -- 89
2020-01-06 13:00:00 7.5 2 Sudoeste 5 Oeste 0 -- -- 92
2020-01-06 12:00:00 4.2 2 Sudoeste 5 Oeste 0 -- -- 100
2020-01-06 11:00:00 0 0 Calma 2 Sudoeste 0 -- -- 100
2020-01-06 10:00:00 -1.7 0 Calma 4 Oeste 0 -- -- 100